Terminal Aerodrome Forecast
Issued by NWS

Home | Current Version | Previous Version | Text Only | Print | Product List | Glossary On
Versions: 1 2 3 4 5 6 7 8 9 10 11 12
000
FTAK31 PAJN 281700
TAFAPG
TAF
PAPG 281740Z 2818/2918 04006KT P6SM BKN028
     FM281900 05008KT P6SM SCT035 BKN110
     FM290300 09006KT P6SM FEW040 SCT100
     FM290600 VRB03KT P6SM SCT100
     FM291600 05005KT P6SM FEW100
      AMD LTD TO CLD VIS AND WIND 2906/2915=

USA.gov is the U.S. government's official web portal to all federal, state and local government web resources and services.